PWSweather.com
Personal Weather Stations
Station Observations
ZYBORSKI
Fromes HillGB hr8 1

Fromes HillGB hr8 1

Lat: 52.1172558, Lon: -2.4749163

Elevation: 0

Station Type: FineOffset

High Low Average
Temperature 58.5°F14.7°F 46.6°F8.1°F 52.3°F11.3°F
Dew Point 51.2°F10.7°F 41.3°F5.2°F 46.6°F8.1°F
Winds 15.9 mph W25.6 mph W Calm Calm 1.6 mph 2.6 mph
Wind Gusts 25.9 mph41.7 mph -- 10.8 mph17.4 mph
Humidity 99% 57% 83%
Pressure 30.23 in1023.70 in 30.15 in1021.00 in -
Precipitation 0.04 in1.00 in - -
Hour Temp Dew Point Humidity Winds Wind Gusts Pressure Precip Precip Rate Daily Precip Total
12:00 AM 51.3°F10.7°C 51.0°F10.6°C 99% Calm Calm 7.6 mph12.2 kmh 30.20 in1022.7 mb 0.01 in0.3 mm 0.00 in0.0 mm 0.01 in0.3 mm
12:15 AM 51.4°F10.8°C 51.2°F10.7°C 99% Calm Calm 3.8 mph6.1 kmh 30.19 in1022.4 mb 0.01 in0.3 mm 0.00 in0.0 mm 0.01 in0.3 mm
12:30 AM 51.3°F10.7°C 51.0°F10.6°C 99% Calm Calm 7.6 mph12.2 kmh 30.19 in1022.4 mb 0.01 in0.3 mm 0.00 in0.0 mm 0.01 in0.3 mm
12:45 AM 51.1°F10.6°C 50.8°F10.4°C 99% Calm Calm 6.9 mph11.1 kmh 30.19 in1022.4 mb 0.01 in0.3 mm 0.00 in0.0 mm 0.01 in0.3 mm
01:00 AM 50.7°F10.4°C 50.5°F10.3°C 99% Calm Calm 14.5 mph23.3 kmh 30.19 in1022.4 mb 0.00 in0.0 mm 0.00 in0.0 mm 0.01 in0.3 mm
01:15 AM 50.2°F10.1°C 49.9°F9.9°C 99% Calm Calm 12.1 mph19.5 kmh 30.19 in1022.4 mb 0.00 in0.0 mm 0.00 in0.0 mm 0.01 in0.3 mm
01:30 AM 49.6°F9.8°C 49.4°F9.7°C 99% Calm Calm 11.4 mph18.3 kmh 30.18 in1022.0 mb 0.00 in0.0 mm 0.00 in0.0 mm 0.01 in0.3 mm
01:45 AM 49.5°F9.7°C 49.2°F9.6°C 99% Calm Calm 6.9 mph11.1 kmh 30.18 in1022.0 mb 0.00 in0.0 mm 0.00 in0.0 mm 0.01 in0.3 mm
02:00 AM 49.1°F9.5°C 48.8°F9.3°C 99% Calm Calm 9.2 mph14.8 kmh 30.18 in1022.0 mb 0.00 in0.0 mm 0.00 in0.0 mm 0.01 in0.3 mm
02:15 AM 48.7°F9.3°C 48.5°F9.2°C 99% Calm Calm 3.1 mph5.0 kmh 30.19 in1022.4 mb 0.00 in0.0 mm 0.00 in0.0 mm 0.01 in0.3 mm
02:30 AM 48.7°F9.3°C 48.5°F9.2°C 99% Calm Calm 6.0 mph9.7 kmh 30.18 in1022.0 mb 0.00 in0.0 mm 0.00 in0.0 mm 0.01 in0.3 mm
02:45 AM 48.7°F9.3°C 48.5°F9.2°C 99% 0.7 mph W1.1 kmh W 12.1 mph19.5 kmh 30.18 in1022.0 mb 0.00 in0.0 mm 0.00 in0.0 mm 0.01 in0.3 mm
03:00 AM 48.4°F9.1°C 48.1°F8.9°C 99% Calm Calm 10.7 mph17.2 kmh 30.18 in1022.0 mb 0.00 in0.0 mm 0.00 in0.0 mm 0.01 in0.3 mm
03:15 AM 48.4°F9.1°C 48.1°F8.9°C 99% 2.2 mph WSW3.5 kmh WSW 16.8 mph27.0 kmh 30.18 in1022.0 mb 0.00 in0.0 mm 0.00 in0.0 mm 0.01 in0.3 mm
03:30 AM 48.2°F9.0°C 47.9°F8.8°C 99% Calm Calm 15.2 mph24.5 kmh 30.18 in1022.0 mb 0.00 in0.0 mm 0.00 in0.0 mm 0.01 in0.3 mm
03:45 AM 47.8°F8.8°C 47.6°F8.7°C 99% Calm Calm 8.3 mph13.4 kmh 30.19 in1022.4 mb 0.00 in0.0 mm 0.00 in0.0 mm 0.01 in0.3 mm
04:00 AM 47.3°F8.5°C 47.0°F8.3°C 99% Calm Calm 6.9 mph11.1 kmh 30.19 in1022.4 mb 0.00 in0.0 mm 0.00 in0.0 mm 0.01 in0.3 mm
04:15 AM 46.9°F8.3°C 46.7°F8.2°C 99% Calm Calm 2.2 mph3.5 kmh 30.19 in1022.4 mb 0.00 in0.0 mm 0.00 in0.0 mm 0.01 in0.3 mm
04:30 AM 46.6°F8.1°C 46.3°F7.9°C 99% Calm Calm 0.7 mph1.1 kmh 30.20 in1022.7 mb 0.00 in0.0 mm 0.00 in0.0 mm 0.01 in0.3 mm
04:45 AM 46.6°F8.1°C 46.3°F7.9°C 99% Calm Calm -- 30.20 in1022.7 mb 0.00 in0.0 mm 0.00 in0.0 mm 0.01 in0.3 mm
05:00 AM 48.0°F8.9°C 47.8°F8.8°C 99% Calm Calm -- 30.20 in1022.7 mb 0.00 in0.0 mm 0.00 in0.0 mm 0.01 in0.3 mm
05:15 AM 48.6°F9.2°C 48.3°F9.1°C 99% Calm Calm 4.5 mph7.2 kmh 30.19 in1022.4 mb 0.00 in0.0 mm 0.00 in0.0 mm 0.01 in0.3 mm
05:30 AM 48.9°F9.4°C 48.7°F9.3°C 99% Calm Calm 5.4 mph8.7 kmh 30.19 in1022.4 mb 0.00 in0.0 mm 0.00 in0.0 mm 0.01 in0.3 mm
05:45 AM 48.9°F9.4°C 48.7°F9.3°C 99% Calm Calm 5.4 mph8.7 kmh 30.18 in1022.0 mb 0.00 in0.0 mm 0.00 in0.0 mm 0.01 in0.3 mm
06:00 AM 49.6°F9.8°C 49.4°F9.7°C 99% Calm Calm 6.9 mph11.1 kmh 30.19 in1022.4 mb 0.00 in0.0 mm 0.00 in0.0 mm 0.01 in0.3 mm
06:15 AM 49.8°F9.9°C 49.6°F9.8°C 99% 1.6 mph W2.6 kmh W 12.1 mph19.5 kmh 30.20 in1022.7 mb 0.00 in0.0 mm 0.00 in0.0 mm 0.01 in0.3 mm
06:30 AM 48.7°F9.3°C 48.5°F9.2°C 99% Calm Calm 13.6 mph21.9 kmh 30.20 in1022.7 mb 0.00 in0.0 mm 0.00 in0.0 mm 0.01 in0.3 mm
06:45 AM 49.3°F9.6°C 49.0°F9.4°C 99% Calm Calm 15.2 mph24.5 kmh 30.21 in1023.0 mb 0.00 in0.0 mm 0.00 in0.0 mm 0.01 in0.3 mm
07:00 AM 49.3°F9.6°C 49.0°F9.4°C 99% Calm Calm 6.9 mph11.1 kmh 30.21 in1023.0 mb 0.00 in0.0 mm 0.00 in0.0 mm 0.01 in0.3 mm
07:15 AM 49.5°F9.7°C 49.2°F9.6°C 99% 6.0 mph W9.7 kmh W 13.0 mph20.9 kmh 30.22 in1023.4 mb 0.00 in0.0 mm 0.00 in0.0 mm 0.01 in0.3 mm
07:30 AM 49.3°F9.6°C 47.9°F8.8°C 95% 6.0 mph W9.7 kmh W 22.1 mph35.6 kmh 30.21 in1023.0 mb 0.00 in0.0 mm 0.00 in0.0 mm 0.01 in0.3 mm
07:45 AM 50.4°F10.2°C 48.4°F9.1°C 93% 3.1 mph W5.0 kmh W 17.4 mph28.0 kmh 30.22 in1023.4 mb 0.00 in0.0 mm 0.00 in0.0 mm 0.01 in0.3 mm
08:00 AM 47.8°F8.8°C 47.3°F8.5°C 98% 6.0 mph WNW9.7 kmh WNW 18.3 mph29.5 kmh 30.23 in1023.7 mb 0.00 in0.0 mm 0.00 in0.0 mm 0.01 in0.3 mm
08:15 AM 50.5°F10.3°C 49.4°F9.7°C 96% Calm Calm -- 30.22 in1023.4 mb 0.00 in0.0 mm 0.00 in0.0 mm 0.01 in0.3 mm
08:30 AM 51.4°F10.8°C 49.2°F9.6°C 92% 0.7 mph W1.1 kmh W 13.0 mph20.9 kmh 30.19 in1022.4 mb 0.00 in0.0 mm 0.00 in0.0 mm 0.01 in0.3 mm
08:45 AM 52.0°F11.1°C 49.7°F9.8°C 92% 6.0 mph W9.7 kmh W 15.2 mph24.5 kmh 30.18 in1022.0 mb 0.00 in0.0 mm 0.00 in0.0 mm 0.01 in0.3 mm
09:00 AM 52.7°F11.5°C 48.3°F9.1°C 85% Calm Calm 18.3 mph29.5 kmh 30.19 in1022.4 mb 0.00 in0.0 mm 0.00 in0.0 mm 0.01 in0.3 mm
09:15 AM 52.3°F11.3°C 47.3°F8.5°C 83% 3.1 mph WNW5.0 kmh WNW 21.3 mph34.3 kmh 30.20 in1022.7 mb 0.00 in0.0 mm 0.00 in0.0 mm 0.01 in0.3 mm
09:30 AM 52.7°F11.5°C 44.7°F7.1°C 74% 15.9 mph W25.6 kmh W 23.5 mph37.8 kmh 30.20 in1022.7 mb 0.00 in0.0 mm 0.00 in0.0 mm 0.01 in0.3 mm
09:45 AM 53.6°F12.0°C 45.2°F7.3°C 73% 8.3 mph W13.4 kmh W 21.3 mph34.3 kmh 30.19 in1022.4 mb 0.00 in0.0 mm 0.00 in0.0 mm 0.01 in0.3 mm
10:00 AM 55.0°F12.8°C 45.8°F7.7°C 71% 3.1 mph W5.0 kmh W 17.4 mph28.0 kmh 30.19 in1022.4 mb 0.00 in0.0 mm 0.00 in0.0 mm 0.01 in0.3 mm
10:15 AM 53.6°F12.0°C 45.9°F7.7°C 75% Calm Calm 19.7 mph31.7 kmh 30.20 in1022.7 mb 0.00 in0.0 mm 0.00 in0.0 mm 0.01 in0.3 mm
10:30 AM 54.5°F12.5°C 46.0°F7.8°C 73% 1.6 mph W2.6 kmh W 13.6 mph21.9 kmh 30.20 in1022.7 mb 0.00 in0.0 mm 0.00 in0.0 mm 0.01 in0.3 mm
10:45 AM 55.2°F12.9°C 43.7°F6.5°C 65% 4.5 mph W7.2 kmh W 21.3 mph34.3 kmh 30.20 in1022.7 mb 0.00 in0.0 mm 0.00 in0.0 mm 0.01 in0.3 mm
11:00 AM 53.1°F11.7°C 43.5°F6.4°C 70% 6.0 mph W9.7 kmh W 18.3 mph29.5 kmh 30.22 in1023.4 mb 0.00 in0.0 mm 0.00 in0.0 mm 0.01 in0.3 mm
11:15 AM 56.1°F13.4°C 45.3°F7.4°C 67% 0.7 mph W1.1 kmh W 17.4 mph28.0 kmh 30.21 in1023.0 mb 0.00 in0.0 mm 0.00 in0.0 mm 0.01 in0.3 mm
11:30 AM 53.4°F11.9°C 43.9°F6.6°C 70% 10.7 mph W17.2 kmh W 25.9 mph41.7 kmh 30.22 in1023.4 mb 0.00 in0.0 mm 0.00 in0.0 mm 0.01 in0.3 mm
11:45 AM 56.1°F13.4°C 44.5°F6.9°C 65% 2.2 mph W3.5 kmh W 14.5 mph23.3 kmh 30.22 in1023.4 mb 0.00 in0.0 mm 0.00 in0.0 mm 0.01 in0.3 mm
12:00 PM 54.9°F12.7°C 43.7°F6.5°C 66% 3.1 mph W5.0 kmh W 15.2 mph24.5 kmh 30.22 in1023.4 mb 0.00 in0.0 mm 0.00 in0.0 mm 0.01 in0.3 mm
12:15 PM 55.2°F12.9°C 43.7°F6.5°C 65% 0.7 mph W1.1 kmh W 13.0 mph20.9 kmh 30.22 in1023.4 mb 0.00 in0.0 mm 0.00 in0.0 mm 0.01 in0.3 mm
12:30 PM 55.8°F13.2°C 43.4°F6.3°C 63% 2.2 mph W3.5 kmh W 19.7 mph31.7 kmh 30.22 in1023.4 mb 0.00 in0.0 mm 0.00 in0.0 mm 0.01 in0.3 mm
12:45 PM 55.6°F13.1°C 45.6°F7.6°C 69% Calm Calm 12.1 mph19.5 kmh 30.22 in1023.4 mb 0.00 in0.0 mm 0.00 in0.0 mm 0.01 in0.3 mm
01:00 PM 55.8°F13.2°C 43.4°F6.3°C 63% 1.6 mph W2.6 kmh W 16.8 mph27.0 kmh 30.22 in1023.4 mb 0.00 in0.0 mm 0.00 in0.0 mm 0.01 in0.3 mm
01:15 PM 55.6°F13.1°C 43.2°F6.2°C 63% 6.9 mph W11.1 kmh W 17.4 mph28.0 kmh 30.22 in1023.4 mb 0.00 in0.0 mm 0.00 in0.0 mm 0.01 in0.3 mm
01:30 PM 58.5°F14.7°C 45.9°F7.7°C 63% 0.7 mph W1.1 kmh W 15.9 mph25.6 kmh 30.22 in1023.4 mb 0.00 in0.0 mm 0.00 in0.0 mm 0.01 in0.3 mm
01:45 PM 58.1°F14.5°C 43.4°F6.3°C 58% 3.1 mph WSW5.0 kmh WSW 15.2 mph24.5 kmh 30.22 in1023.4 mb 0.00 in0.0 mm 0.00 in0.0 mm 0.01 in0.3 mm
02:00 PM 57.0°F13.9°C 45.0°F7.2°C 64% 1.6 mph W2.6 kmh W 19.0 mph30.6 kmh 30.22 in1023.4 mb 0.00 in0.0 mm 0.00 in0.0 mm 0.01 in0.3 mm
02:15 PM 57.9°F14.4°C 43.2°F6.2°C 58% 7.6 mph WSW12.2 kmh WSW 17.4 mph28.0 kmh 30.22 in1023.4 mb 0.00 in0.0 mm 0.00 in0.0 mm 0.01 in0.3 mm
02:30 PM 56.5°F13.6°C 41.9°F5.5°C 58% 6.0 mph W9.7 kmh W 19.7 mph31.7 kmh 30.22 in1023.4 mb 0.00 in0.0 mm 0.00 in0.0 mm 0.01 in0.3 mm
02:45 PM 57.2°F14.0°C 46.4°F8.0°C 67% Calm Calm 13.6 mph21.9 kmh 30.23 in1023.7 mb 0.00 in0.0 mm 0.00 in0.0 mm 0.01 in0.3 mm
03:00 PM 58.5°F14.7°C 43.3°F6.3°C 57% 3.8 mph W6.1 kmh W 17.4 mph28.0 kmh 30.22 in1023.4 mb 0.00 in0.0 mm 0.00 in0.0 mm 0.01 in0.3 mm
03:15 PM 55.9°F13.3°C 42.7°F5.9°C 61% 6.0 mph W9.7 kmh W 16.8 mph27.0 kmh 30.22 in1023.4 mb 0.00 in0.0 mm 0.00 in0.0 mm 0.01 in0.3 mm
03:30 PM 56.5°F13.6°C 42.3°F5.7°C 59% 0.7 mph W1.1 kmh W 21.3 mph34.3 kmh 30.22 in1023.4 mb 0.00 in0.0 mm 0.00 in0.0 mm 0.01 in0.3 mm
03:45 PM 55.4°F13.0°C 41.3°F5.2°C 59% 1.6 mph W2.6 kmh W 19.0 mph30.6 kmh 30.22 in1023.4 mb 0.00 in0.0 mm 0.00 in0.0 mm 0.01 in0.3 mm
04:00 PM 57.2°F14.0°C 42.6°F5.9°C 58% 3.8 mph W6.1 kmh W 19.7 mph31.7 kmh 30.21 in1023.0 mb 0.00 in0.0 mm 0.00 in0.0 mm 0.01 in0.3 mm
04:15 PM 57.4°F14.1°C 43.2°F6.2°C 59% 1.6 mph W2.6 kmh W 20.6 mph33.2 kmh 30.21 in1023.0 mb 0.00 in0.0 mm 0.00 in0.0 mm 0.01 in0.3 mm
04:30 PM 58.1°F14.5°C 43.4°F6.3°C 58% 0.7 mph W1.1 kmh W 13.6 mph21.9 kmh 30.22 in1023.4 mb 0.00 in0.0 mm 0.00 in0.0 mm 0.01 in0.3 mm
04:45 PM 55.8°F13.2°C 43.8°F6.6°C 64% 0.7 mph W1.1 kmh W 17.4 mph28.0 kmh 30.22 in1023.4 mb 0.00 in0.0 mm 0.00 in0.0 mm 0.01 in0.3 mm
05:00 PM 55.0°F12.8°C 42.7°F5.9°C 63% 2.2 mph W3.5 kmh W 13.6 mph21.9 kmh 30.21 in1023.0 mb 0.00 in0.0 mm 0.00 in0.0 mm 0.01 in0.3 mm
05:15 PM 55.8°F13.2°C 44.2°F6.8°C 65% Calm Calm 9.2 mph14.8 kmh 30.20 in1022.7 mb 0.00 in0.0 mm 0.00 in0.0 mm 0.01 in0.3 mm
05:30 PM 56.7°F13.7°C 45.0°F7.2°C 65% Calm Calm 16.8 mph27.0 kmh 30.20 in1022.7 mb 0.00 in0.0 mm 0.00 in0.0 mm 0.01 in0.3 mm
05:45 PM 56.7°F13.7°C 45.0°F7.2°C 65% 4.5 mph W7.2 kmh W 17.4 mph28.0 kmh 30.19 in1022.4 mb 0.00 in0.0 mm 0.00 in0.0 mm 0.01 in0.3 mm
06:00 PM 55.8°F13.2°C 44.6°F7.0°C 66% 0.7 mph W1.1 kmh W 12.1 mph19.5 kmh 30.19 in1022.4 mb 0.00 in0.0 mm 0.00 in0.0 mm 0.01 in0.3 mm
06:15 PM 56.1°F13.4°C 45.7°F7.6°C 68% Calm Calm 12.1 mph19.5 kmh 30.19 in1022.4 mb 0.00 in0.0 mm 0.00 in0.0 mm 0.01 in0.3 mm
06:30 PM 57.4°F14.1°C 45.3°F7.4°C 64% Calm Calm 6.0 mph9.7 kmh 30.19 in1022.4 mb 0.00 in0.0 mm 0.00 in0.0 mm 0.01 in0.3 mm
06:45 PM 55.9°F13.3°C 44.4°F6.9°C 65% 0.7 mph W1.1 kmh W 11.4 mph18.3 kmh 30.19 in1022.4 mb 0.00 in0.0 mm 0.00 in0.0 mm 0.01 in0.3 mm
07:00 PM 56.1°F13.4°C 46.1°F7.8°C 69% Calm Calm 9.2 mph14.8 kmh 30.19 in1022.4 mb 0.00 in0.0 mm 0.00 in0.0 mm 0.01 in0.3 mm
07:15 PM 55.9°F13.3°C 45.2°F7.3°C 67% Calm Calm -- 30.18 in1022.0 mb 0.00 in0.0 mm 0.00 in0.0 mm 0.01 in0.3 mm
07:30 PM 53.8°F12.1°C 44.6°F7.0°C 71% Calm Calm -- 30.19 in1022.4 mb 0.00 in0.0 mm 0.00 in0.0 mm 0.01 in0.3 mm
07:45 PM 53.1°F11.7°C 45.4°F7.4°C 75% Calm Calm -- 30.19 in1022.4 mb 0.00 in0.0 mm 0.00 in0.0 mm 0.01 in0.3 mm
08:00 PM 52.5°F11.4°C 45.2°F7.3°C 76% Calm Calm -- 30.19 in1022.4 mb 0.00 in0.0 mm 0.00 in0.0 mm 0.01 in0.3 mm
08:15 PM 51.6°F10.9°C 45.7°F7.6°C 80% Calm Calm -- 30.19 in1022.4 mb 0.00 in0.0 mm 0.00 in0.0 mm 0.01 in0.3 mm
08:30 PM 51.1°F10.6°C 46.7°F8.2°C 85% Calm Calm 1.6 mph2.6 kmh 30.20 in1022.7 mb 0.00 in0.0 mm 0.00 in0.0 mm 0.01 in0.3 mm
08:45 PM 50.7°F10.4°C 47.3°F8.5°C 88% Calm Calm -- 30.19 in1022.4 mb 0.00 in0.0 mm 0.00 in0.0 mm 0.01 in0.3 mm
09:00 PM 50.7°F10.4°C 48.2°F9.0°C 91% Calm Calm 4.5 mph7.2 kmh 30.20 in1022.7 mb 0.00 in0.0 mm 0.00 in0.0 mm 0.01 in0.3 mm
09:15 PM 50.7°F10.4°C 47.9°F8.8°C 90% Calm Calm 3.8 mph6.1 kmh 30.19 in1022.4 mb 0.00 in0.0 mm 0.00 in0.0 mm 0.01 in0.3 mm
09:30 PM 50.5°F10.3°C 48.3°F9.1°C 92% Calm Calm 3.8 mph6.1 kmh 30.20 in1022.7 mb 0.00 in0.0 mm 0.00 in0.0 mm 0.01 in0.3 mm
09:45 PM 50.4°F10.2°C 48.4°F9.1°C 93% Calm Calm 3.8 mph6.1 kmh 30.19 in1022.4 mb 0.00 in0.0 mm 0.00 in0.0 mm 0.01 in0.3 mm
10:00 PM 49.6°F9.8°C 48.5°F9.2°C 96% Calm Calm -- 30.19 in1022.4 mb 0.00 in0.0 mm 0.00 in0.0 mm 0.01 in0.3 mm
10:15 PM 48.7°F9.3°C 48.5°F9.2°C 99% Calm Calm -- 30.18 in1022.0 mb 0.00 in0.0 mm 0.00 in0.0 mm 0.01 in0.3 mm
10:30 PM 48.6°F9.2°C 48.3°F9.1°C 99% Calm Calm -- 30.18 in1022.0 mb 0.00 in0.0 mm 0.00 in0.0 mm 0.01 in0.3 mm
10:45 PM 48.6°F9.2°C 48.3°F9.1°C 99% Calm Calm -- 30.17 in1021.7 mb 0.00 in0.0 mm 0.00 in0.0 mm 0.01 in0.3 mm
11:00 PM 48.7°F9.3°C 48.5°F9.2°C 99% Calm Calm 0.7 mph1.1 kmh 30.17 in1021.7 mb 0.00 in0.0 mm 0.00 in0.0 mm 0.01 in0.3 mm
11:15 PM 48.4°F9.1°C 48.1°F8.9°C 99% Calm Calm 1.6 mph2.6 kmh 30.16 in1021.3 mb 0.00 in0.0 mm 0.00 in0.0 mm 0.01 in0.3 mm
11:30 PM 48.4°F9.1°C 48.1°F8.9°C 99% Calm Calm 2.2 mph3.5 kmh 30.15 in1021.0 mb 0.00 in0.0 mm 0.00 in0.0 mm 0.01 in0.3 mm
11:45 PM 48.2°F9.0°C 47.9°F8.8°C 99% Calm Calm 3.8 mph6.1 kmh 30.15 in1021.0 mb 0.00 in0.0 mm 0.00 in0.0 mm 0.01 in0.3 mm